createdAt,value
2022-11-27T00:02:18.144Z,98847.50
2022-11-27T00:07:20.982Z,98852.19
2022-11-27T00:12:25.082Z,98876.59
2022-11-27T00:17:27.845Z,98889.25
2022-11-27T00:22:30.545Z,98871.91
2022-11-27T00:27:34.525Z,98882.38
2022-11-27T00:32:37.289Z,98877.56
2022-11-27T00:37:40.010Z,98888.56
2022-11-27T00:42:44.049Z,98896.88
2022-11-27T00:47:46.684Z,98892.31
2022-11-27T00:52:49.399Z,98903.38
2022-11-27T00:57:53.436Z,98918.69
2022-11-27T01:02:56.159Z,98921.06
2022-11-27T01:07:58.958Z,98924.34
2022-11-27T01:13:03.034Z,98934.75
2022-11-27T01:18:05.775Z,98938.56
2022-11-27T01:23:08.857Z,98950.38
2022-11-27T01:28:12.891Z,98956.47
2022-11-27T01:33:15.790Z,98966.69
2022-11-27T01:38:18.531Z,98970.94
2022-11-27T01:43:41.895Z,98972.50
2022-11-27T01:48:44.699Z,98991.84
2022-11-27T01:53:47.695Z,98977.25
2022-11-27T01:58:52.267Z,98993.19
2022-11-27T02:03:56.003Z,98994.63
2022-11-27T02:08:58.717Z,98989.63
2022-11-27T02:14:09.359Z,98975.78
2022-11-27T02:19:16.699Z,98980.56
2022-11-27T02:24:33.454Z,98995.84
2022-11-27T02:29:37.925Z,99002.53
2022-11-27T02:34:46.784Z,98991.91
2022-11-27T02:39:53.087Z,99006.34
2022-11-27T02:45:01.100Z,98983.22
2022-11-27T02:50:04.506Z,98994.44
2022-11-27T02:55:09.786Z,98996.00
2022-11-27T03:00:15.342Z,98994.16
2022-11-27T03:05:21.002Z,98998.16
2022-11-27T03:10:28.411Z,98973.34
2022-11-27T03:15:38.653Z,98979.75
2022-11-27T03:20:42.438Z,98962.88
2022-11-27T03:25:45.159Z,98963.50
2022-11-27T03:30:49.249Z,98960.69
2022-11-27T03:35:53.302Z,98961.38
2022-11-27T03:41:02.575Z,98958.78
2022-11-27T03:46:11.021Z,98953.25
2022-11-27T03:51:20.404Z,98954.91
2022-11-27T03:56:31.081Z,98950.66
2022-11-27T04:01:35.480Z,98959.81
2022-11-27T04:06:38.251Z,98983.59
2022-11-27T04:11:40.963Z,98981.66
2022-11-27T04:16:45.088Z,98979.56
2022-11-27T04:21:47.785Z,98982.97
2022-11-27T04:26:50.541Z,98975.25
2022-11-27T04:31:54.641Z,98976.13
2022-11-27T04:36:57.420Z,98987.44
2022-11-27T04:42:00.097Z,99009.66
2022-11-27T04:47:04.319Z,99012.00
2022-11-27T04:52:07.139Z,98991.59
2022-11-27T04:57:09.897Z,99010.00
2022-11-27T05:02:14.014Z,98986.06
2022-11-27T05:07:16.757Z,98977.31
2022-11-27T05:12:19.499Z,98986.34
2022-11-27T05:17:23.583Z,98978.06
2022-11-27T05:22:26.357Z,98977.00
2022-11-27T05:27:29.054Z,98974.41
2022-11-27T05:32:33.218Z,98963.13
2022-11-27T05:37:36.078Z,98989.38
2022-11-27T05:42:38.812Z,98975.72
2022-11-27T05:47:42.961Z,98979.13
2022-11-27T05:52:46.712Z,98972.44
2022-11-27T05:57:49.436Z,98955.97
2022-11-27T06:02:53.749Z,98955.81
2022-11-27T06:07:56.591Z,98934.28
2022-11-27T06:12:59.352Z,98942.91
2022-11-27T06:18:03.503Z,98941.72
2022-11-27T06:23:06.165Z,98946.91
2022-11-27T06:28:09.430Z,98947.63
2022-11-27T06:33:13.462Z,98949.50
2022-11-27T06:38:16.124Z,98961.13
2022-11-27T06:43:18.839Z,98951.31
2022-11-27T06:48:22.929Z,98943.97
2022-11-27T06:53:25.783Z,98951.16
2022-11-27T06:58:31.196Z,98965.09
2022-11-27T07:03:35.973Z,98969.41
2022-11-27T07:08:38.786Z,98981.25
2022-11-27T07:13:41.586Z,99000.25
2022-11-27T07:18:46.958Z,98984.19
2022-11-27T07:23:49.692Z,98969.72
2022-11-27T07:28:52.798Z,98971.50
2022-11-27T07:33:57.443Z,98980.44
2022-11-27T07:39:00.281Z,98984.97
2022-11-27T07:44:03.735Z,98970.66
2022-11-27T07:49:07.994Z,99002.81
2022-11-27T07:54:11.194Z,99001.41
2022-11-27T07:59:14.020Z,99008.56
2022-11-27T08:04:18.257Z,99003.56
2022-11-27T08:09:21.040Z,98992.28
2022-11-27T08:14:23.908Z,98977.00
2022-11-27T08:19:28.275Z,98980.41
2022-11-27T08:24:31.173Z,98972.31
2022-11-27T08:29:34.207Z,98959.50
2022-11-27T08:34:38.905Z,98965.16
2022-11-27T08:39:41.942Z,98966.41
2022-11-27T08:44:44.693Z,98951.06
2022-11-27T08:49:48.700Z,98945.31
2022-11-27T08:54:56.076Z,98929.16
2022-11-27T09:00:00.405Z,98942.19
2022-11-27T09:05:06.159Z,98921.28
2022-11-27T09:10:09.428Z,98917.50
2022-11-27T09:15:12.657Z,98890.03
2022-11-27T09:20:16.910Z,98897.38
2022-11-27T09:25:19.666Z,98896.91
2022-11-27T09:30:22.626Z,98893.00
2022-11-27T09:35:26.832Z,98877.03
2022-11-27T09:40:29.756Z,98894.09
2022-11-27T09:45:32.908Z,98892.31
2022-11-27T09:50:40.420Z,98890.97
2022-11-27T09:55:45.743Z,98899.34
2022-11-27T10:00:49.088Z,98893.44
2022-11-27T10:06:02.070Z,98884.06
2022-11-27T10:11:13.475Z,98888.75
2022-11-27T10:16:23.531Z,98857.44
2022-11-27T10:21:34.331Z,98864.44
2022-11-27T10:26:40.114Z,98868.94
2022-11-27T10:31:48.704Z,98885.41
2022-11-27T10:36:53.323Z,98862.78
2022-11-27T10:41:59.867Z,98859.97
2022-11-27T10:47:03.953Z,98886.09
2022-11-27T10:52:13.463Z,98894.91
2022-11-27T10:57:26.201Z,98885.13
2022-11-27T11:02:30.939Z,98875.28
2022-11-27T11:07:35.107Z,98896.44
2022-11-27T11:12:37.841Z,98917.66
2022-11-27T11:17:40.854Z,98915.28
2022-11-27T11:22:47.968Z,98899.84
2022-11-27T11:27:52.339Z,98931.25
2022-11-27T11:33:01.621Z,98963.75
2022-11-27T11:38:07.655Z,98964.91
2022-11-27T11:43:25.023Z,98985.28
2022-11-27T11:48:28.672Z,99000.88
2022-11-27T11:53:36.289Z,99036.81
2022-11-27T11:58:47.836Z,99097.41
2022-11-27T12:04:04.110Z,99217.19
2022-11-27T12:09:17.066Z,99295.16
2022-11-27T12:14:27.155Z,99395.00
2022-11-27T12:19:47.542Z,99432.09
2022-11-27T12:24:57.354Z,99501.94
2022-11-27T12:30:06.972Z,99548.88
2022-11-27T12:35:25.260Z,99597.81
2022-11-27T12:40:43.690Z,99664.19
2022-11-27T12:45:50.020Z,99725.63
2022-11-27T12:50:56.164Z,99820.22
2022-11-27T12:56:05.090Z,99915.25
2022-11-27T13:01:11.255Z,100023.63
2022-11-27T13:06:15.212Z,100130.06
2022-11-27T13:11:21.507Z,100362.41
2022-11-27T13:16:25.099Z,100557.06
2022-11-27T13:21:30.858Z,100651.34
2022-11-27T13:26:37.835Z,100739.00
2022-11-27T13:31:40.779Z,100842.03
2022-11-27T13:36:45.772Z,101166.31
2022-11-27T13:41:50.323Z,101391.03
2022-11-27T13:46:55.799Z,101497.81
2022-11-27T13:52:10.775Z,101544.59
2022-11-27T13:57:17.194Z,101584.88
2022-11-27T14:02:19.995Z,101636.41
2022-11-27T14:07:22.802Z,101631.75
2022-11-27T14:12:28.616Z,101632.78
2022-11-27T14:17:39.530Z,101602.19
2022-11-27T14:23:07.516Z,101646.16
2022-11-27T14:28:15.232Z,101645.16
2022-11-27T14:33:20.215Z,101662.06
2022-11-27T14:38:24.047Z,101673.44
2022-11-27T14:43:28.137Z,101680.66
2022-11-27T14:48:35.642Z,101709.03
2022-11-27T14:53:38.468Z,101713.16
2022-11-27T14:58:49.396Z,101722.63
2022-11-27T15:03:59.277Z,101747.75
2022-11-27T15:09:30.149Z,101723.66
2022-11-27T15:14:27.138Z,101739.72
2022-11-27T15:19:32.524Z,101741.91
2022-11-27T15:24:37.183Z,101748.75
2022-11-27T15:29:42.832Z,101772.50
2022-11-27T15:34:46.114Z,101744.88
2022-11-27T15:39:51.740Z,101754.72
2022-11-27T15:44:56.884Z,101883.81
2022-11-27T15:49:59.907Z,101880.16
2022-11-27T15:55:02.685Z,101860.16
2022-11-27T16:00:09.973Z,101846.94
2022-11-27T16:05:15.410Z,101852.97
2022-11-27T16:10:18.285Z,101837.78
2022-11-27T16:15:23.539Z,101856.28
2022-11-27T16:20:28.192Z,101852.13
2022-11-27T16:25:30.999Z,101853.38
2022-11-27T16:30:36.534Z,101841.19
2022-11-27T16:35:39.481Z,101830.34
2022-11-27T16:40:42.733Z,101830.63
2022-11-27T16:45:47.010Z,101828.53
2022-11-27T16:50:49.923Z,101828.06
2022-11-27T16:55:52.906Z,101820.16
2022-11-27T17:00:57.346Z,101821.25
2022-11-27T17:06:00.142Z,101813.81
2022-11-27T17:11:08.767Z,101796.81
2022-11-27T17:16:13.063Z,101778.66
2022-11-27T17:21:18.191Z,101742.81
2022-11-27T17:26:23.534Z,101715.34
2022-11-27T17:31:32.559Z,101702.22
2022-11-27T17:36:37.505Z,101688.06
2022-11-27T17:41:41.761Z,101664.81
2022-11-27T17:46:49.871Z,101643.41
2022-11-27T17:51:53.410Z,101606.28
2022-11-27T17:56:56.948Z,101587.53
2022-11-27T18:02:01.427Z,101577.41
2022-11-27T18:07:04.284Z,101553.50
2022-11-27T18:12:08.488Z,101528.50
2022-11-27T18:17:17.096Z,101518.03
2022-11-27T18:22:19.967Z,101506.06
2022-11-27T18:27:22.910Z,101496.16
2022-11-27T18:32:27.379Z,101475.56
2022-11-27T18:37:30.263Z,101470.56
2022-11-27T18:42:33.526Z,101465.22
2022-11-27T18:47:38.317Z,101474.44
2022-11-27T18:52:41.332Z,101481.19
2022-11-27T18:57:44.154Z,101494.88
2022-11-27T19:02:48.564Z,101502.53
2022-11-27T19:07:51.458Z,101507.19
2022-11-27T19:12:54.639Z,101523.38
2022-11-27T19:17:59.105Z,101529.66
2022-11-27T19:23:02.200Z,101538.50
2022-11-27T19:28:05.665Z,101548.66
2022-11-27T19:33:09.974Z,101551.94
2022-11-27T19:38:13.013Z,101563.66
2022-11-27T19:43:15.744Z,101593.38
2022-11-27T19:48:23.305Z,101616.25
2022-11-27T19:53:26.732Z,101638.34
2022-11-27T19:58:29.543Z,101651.72
2022-11-27T20:03:35.398Z,101662.19
2022-11-27T20:08:38.652Z,101664.03
2022-11-27T20:13:41.544Z,101682.34
2022-11-27T20:18:45.678Z,101698.19
2022-11-27T20:23:49.620Z,101698.31
2022-11-27T20:28:53.202Z,101691.53
2022-11-27T20:34:00.550Z,101696.31
2022-11-27T20:39:03.365Z,101701.06
2022-11-27T20:44:06.503Z,101700.59
2022-11-27T20:49:11.717Z,101673.31
2022-11-27T20:54:14.451Z,101672.19
2022-11-27T20:59:18.055Z,101309.00
2022-11-27T21:04:25.094Z,101319.72
2022-11-27T21:09:29.102Z,101313.56
2022-11-27T21:14:31.941Z,101296.50
2022-11-27T21:19:36.040Z,101281.81
2022-11-27T21:24:38.955Z,101278.41
2022-11-27T21:29:42.189Z,101057.94
2022-11-27T21:34:46.573Z,101045.75
2022-11-27T21:39:49.473Z,101030.16
2022-11-27T21:44:52.269Z,101005.59
2022-11-27T21:49:56.534Z,100983.63
2022-11-27T21:54:59.332Z,100958.88
2022-11-27T22:00:02.291Z,100947.50
2022-11-27T22:05:16.303Z,100928.16
2022-11-27T22:10:19.240Z,100910.16
2022-11-27T22:15:22.023Z,100899.69
2022-11-27T22:20:26.128Z,100890.13
2022-11-27T22:25:29.296Z,100883.28
2022-11-27T22:30:32.126Z,100853.50
2022-11-27T22:35:36.362Z,100831.78
2022-11-27T22:40:39.124Z,100818.09
2022-11-27T22:45:47.662Z,100810.25
2022-11-27T22:50:57.694Z,100793.44
2022-11-27T22:56:05.417Z,100770.69
2022-11-27T23:01:08.973Z,100745.50
2022-11-27T23:06:14.638Z,100732.22
2022-11-27T23:11:19.835Z,100712.81
2022-11-27T23:16:23.063Z,100706.25
2022-11-27T23:21:27.455Z,100694.69
2022-11-27T23:26:30.440Z,100651.75
2022-11-27T23:31:35.982Z,100629.50
2022-11-27T23:36:40.365Z,100586.97
2022-11-27T23:41:43.497Z,100636.72
2022-11-27T23:46:46.238Z,100626.03
2022-11-27T23:51:50.415Z,100624.22
2022-11-27T23:56:53.680Z,100618.31
